Time;durP1;ratioP1;P1;durP2;ratioP2;P2;SDS_P1;SDS_P2;PMS_P1;PMS_P2;Temp;Humidity;BMP_temperature;BMP_pressure;BME280_temperature;BME280_humidity;BME280_pressure;Samples;Min_cycle;Max_cycle;Signal;HPM_P1;HPM_P2
2023/08/11 00:00:27;;;;;;;191.40;57.77;;;;;;;;;;5050797;28;20890;-54
2023/08/11 00:02:53;;;;;;;192.47;56.87;;;;;;;;;;5051150;28;20443;-55
2023/08/11 00:05:19;;;;;;;190.77;56.97;;;;;;;;;;5050751;28;20449;-54
2023/08/11 00:07:47;;;;;;;190.30;56.13;;;;;;;;;;5051076;28;20445;-54
2023/08/11 00:10:13;;;;;;;191.13;57.05;;;;;;;;;;5049593;28;20455;-54
2023/08/11 00:12:40;;;;;;;191.25;56.58;;;;;;;;;;5050943;28;20168;-55
2023/08/11 00:15:06;;;;;;;194.27;58.00;;;;;;;;;;5050129;28;20178;-54
2023/08/11 00:17:33;;;;;;;191.23;57.15;;;;;;;;;;5050749;28;20213;-55
2023/08/11 00:19:59;;;;;;;189.75;55.70;;;;;;;;;;5050164;28;20270;-55
2023/08/11 00:22:25;;;;;;;190.57;55.47;;;;;;;;;;5050605;28;20210;-55
2023/08/11 00:24:51;;;;;;;188.17;54.70;;;;;;;;;;5050731;28;20465;-55
2023/08/11 00:27:17;;;;;;;191.45;58.00;;;;;;;;;;5046548;28;20422;-54
2023/08/11 00:29:43;;;;;;;192.37;58.40;;;;;;;;;;5052748;28;20255;-54
2023/08/11 00:32:08;;;;;;;189.47;56.97;;;;;;;;;;5054411;28;20490;-55
2023/08/11 00:34:35;;;;;;;188.00;54.03;;;;;;;;;;5052543;28;20408;-55
2023/08/11 00:37:01;;;;;;;192.90;56.88;;;;;;;;;;5051198;28;20437;-55
2023/08/11 00:39:27;;;;;;;190.00;56.50;;;;;;;;;;5054204;28;20223;-55
2023/08/11 00:41:53;;;;;;;187.82;55.00;;;;;;;;;;5053972;28;21040;-55
2023/08/11 00:44:19;;;;;;;188.07;54.90;;;;;;;;;;5053954;28;20290;-53
2023/08/11 00:46:45;;;;;;;190.67;56.80;;;;;;;;;;5048688;28;20412;-53
2023/08/11 00:49:11;;;;;;;190.23;56.70;;;;;;;;;;5054231;28;20409;-55
2023/08/11 00:51:38;;;;;;;192.10;59.03;;;;;;;;;;5053290;28;20206;-54
2023/08/11 00:54:06;;;;;;;191.35;58.05;;;;;;;;;;5053888;28;20433;-54
2023/08/11 00:56:32;;;;;;;191.25;57.65;;;;;;;;;;5054058;28;20171;-55
2023/08/11 00:58:58;;;;;;;191.20;56.90;;;;;;;;;;5053904;28;20307;-54
2023/08/11 01:01:24;;;;;;;188.87;55.60;;;;;;;;;;5053356;28;20429;-55
2023/08/11 01:03:50;;;;;;;190.85;57.03;;;;;;;;;;5053522;28;20460;-55
2023/08/11 01:06:21;;;;;;;190.00;55.75;;;;;;;;;;5052955;28;20536;-55
2023/08/11 01:08:58;;;;;;;191.73;58.25;;;;;;;;;;5053694;28;20186;-55
2023/08/11 01:11:24;;;;;;;187.82;54.47;;;;;;;;;;5053341;28;20685;-54
2023/08/11 01:13:53;;;;;;;190.97;56.50;;;;;;;;;;5053607;28;20182;-55
2023/08/11 01:16:20;;;;;;;188.55;54.67;;;;;;;;;;5050733;28;20430;-54
2023/08/11 01:18:47;;;;;;;191.75;56.85;;;;;;;;;;5049800;28;20177;-55
2023/08/11 01:21:14;;;;;;;189.40;55.30;;;;;;;;;;5053151;28;20699;-54
2023/08/11 01:23:40;;;;;;;191.45;57.13;;;;;;;;;;5051446;28;20287;-55
2023/08/11 01:26:06;;;;;;;189.32;55.50;;;;;;;;;;5049702;28;20198;-55
2023/08/11 01:28:35;;;;;;;190.35;57.30;;;;;;;;;;5053429;28;20186;-54
2023/08/11 01:31:03;;;;;;;189.88;55.85;;;;;;;;;;5053172;28;20298;-55
2023/08/11 01:33:29;;;;;;;191.23;57.00;;;;;;;;;;5052962;28;20571;-55
2023/08/11 01:35:55;;;;;;;190.47;55.90;;;;;;;;;;5052548;28;20198;-55
2023/08/11 01:38:21;;;;;;;189.93;55.57;;;;;;;;;;5046678;28;20516;-52
2023/08/11 01:40:47;;;;;;;190.00;54.87;;;;;;;;;;5051968;28;20419;-55
2023/08/11 01:43:15;;;;;;;189.30;55.40;;;;;;;;;;5052992;28;20409;-55
2023/08/11 01:45:43;;;;;;;192.57;56.50;;;;;;;;;;5052681;28;20464;-55
2023/08/11 01:48:09;;;;;;;188.68;54.55;;;;;;;;;;5053110;28;20726;-54
2023/08/11 01:50:35;;;;;;;188.93;54.92;;;;;;;;;;5052574;28;20288;-54
2023/08/11 01:53:02;;;;;;;188.68;54.58;;;;;;;;;;5053015;28;20627;-54
2023/08/11 01:55:29;;;;;;;190.05;56.20;;;;;;;;;;5052781;28;20182;-54
2023/08/11 01:57:55;;;;;;;188.95;55.78;;;;;;;;;;5052357;28;20572;-55
2023/08/11 02:00:21;;;;;;;190.35;55.65;;;;;;;;;;5052628;28;20495;-55
2023/08/11 02:02:48;;;;;;;189.43;55.38;;;;;;;;;;5052804;28;20181;-55
2023/08/11 02:05:15;;;;;;;188.63;54.78;;;;;;;;;;5052631;28;20221;-54
2023/08/11 02:07:42;;;;;;;191.52;57.10;;;;;;;;;;5052709;28;20173;-55
2023/08/11 02:10:08;;;;;;;189.93;56.00;;;;;;;;;;5052407;28;20177;-55
2023/08/11 02:12:35;;;;;;;189.77;55.85;;;;;;;;;;5052150;28;20179;-55
2023/08/11 02:15:01;;;;;;;189.77;55.78;;;;;;;;;;5052504;28;20665;-54
2023/08/11 02:17:27;;;;;;;187.97;54.83;;;;;;;;;;5052484;28;20215;-55
2023/08/11 02:19:53;;;;;;;194.53;60.43;;;;;;;;;;5052259;28;20418;-54
2023/08/11 02:22:19;;;;;;;190.23;55.53;;;;;;;;;;5052292;28;20432;-54
2023/08/11 02:24:45;;;;;;;190.50;57.08;;;;;;;;;;5051814;28;20204;-54
2023/08/11 02:27:13;;;;;;;189.17;55.00;;;;;;;;;;5050593;28;20224;-54
2023/08/11 02:29:39;;;;;;;189.35;57.50;;;;;;;;;;5044241;28;20399;-55
2023/08/11 02:32:05;;;;;;;188.77;55.50;;;;;;;;;;5048560;28;20677;-54
2023/08/11 02:34:31;;;;;;;189.95;56.40;;;;;;;;;;5046920;28;20462;-54
2023/08/11 02:36:57;;;;;;;191.18;56.95;;;;;;;;;;5052238;28;20662;-55
2023/08/11 02:39:23;;;;;;;190.07;57.07;;;;;;;;;;5051640;28;20274;-55
2023/08/11 02:41:49;;;;;;;190.50;57.78;;;;;;;;;;5051711;28;20801;-54
2023/08/11 02:44:15;;;;;;;191.10;57.50;;;;;;;;;;5051877;28;20214;-54
2023/08/11 02:46:41;;;;;;;189.60;55.87;;;;;;;;;;5051838;28;20401;-54
2023/08/11 02:49:07;;;;;;;189.37;55.47;;;;;;;;;;5052029;28;20426;-55
2023/08/11 02:51:34;;;;;;;187.77;54.60;;;;;;;;;;5051295;28;20443;-54
2023/08/11 02:54:00;;;;;;;189.23;55.30;;;;;;;;;;5051532;28;20418;-55
2023/08/11 02:56:26;;;;;;;190.90;56.67;;;;;;;;;;5051776;28;20264;-53
2023/08/11 02:58:56;;;;;;;188.47;54.37;;;;;;;;;;5051840;28;20290;-56
2023/08/11 03:01:22;;;;;;;192.65;57.65;;;;;;;;;;5051487;28;20470;-56
2023/08/11 03:03:48;;;;;;;189.43;56.07;;;;;;;;;;5051557;28;20238;-56
2023/08/11 03:06:14;;;;;;;189.35;55.70;;;;;;;;;;5051434;28;20489;-56
2023/08/11 03:08:40;;;;;;;191.33;57.47;;;;;;;;;;5051772;28;20253;-55
2023/08/11 03:11:06;;;;;;;188.07;54.70;;;;;;;;;;5051301;28;20431;-55
2023/08/11 03:13:32;;;;;;;190.10;55.70;;;;;;;;;;5051569;28;20414;-56
2023/08/11 03:15:58;;;;;;;189.38;54.63;;;;;;;;;;5051605;28;20415;-56
2023/08/11 03:18:25;;;;;;;190.80;57.17;;;;;;;;;;5051472;28;20170;-56
2023/08/11 03:20:54;;;;;;;188.68;55.00;;;;;;;;;;5051087;28;20345;-57
2023/08/11 03:23:20;;;;;;;191.52;57.30;;;;;;;;;;5051433;28;20177;-57
2023/08/11 03:25:46;;;;;;;189.70;56.58;;;;;;;;;;5051455;28;20170;-57
2023/08/11 03:28:12;;;;;;;189.05;55.40;;;;;;;;;;5051504;28;20228;-55
2023/08/11 03:30:38;;;;;;;189.00;54.87;;;;;;;;;;5044404;28;20283;-54
2023/08/11 03:33:04;;;;;;;190.50;56.97;;;;;;;;;;5051202;28;20409;-55
2023/08/11 03:35:33;;;;;;;188.93;54.95;;;;;;;;;;5051250;28;20915;-55
2023/08/11 03:37:59;;;;;;;190.50;55.65;;;;;;;;;;5049736;28;20193;-55
2023/08/11 03:40:25;;;;;;;190.83;55.03;;;;;;;;;;5051772;28;20180;-54
2023/08/11 03:42:52;;;;;;;188.52;54.33;;;;;;;;;;5051354;28;20413;-54
2023/08/11 03:45:18;;;;;;;189.00;54.67;;;;;;;;;;5051105;28;20650;-53
2023/08/11 03:47:44;;;;;;;189.97;55.20;;;;;;;;;;5051151;28;20276;-54
2023/08/11 03:50:10;;;;;;;191.70;57.50;;;;;;;;;;5042683;28;20513;-53
2023/08/11 03:52:37;;;;;;;191.55;57.30;;;;;;;;;;5049668;28;20182;-54
2023/08/11 03:55:04;;;;;;;189.73;55.83;;;;;;;;;;5051151;28;20185;-54
2023/08/11 03:57:30;;;;;;;188.55;54.28;;;;;;;;;;5051155;28;20181;-54
2023/08/11 03:59:56;;;;;;;190.90;56.80;;;;;;;;;;5050962;28;20731;-54
2023/08/11 04:02:23;;;;;;;191.25;57.28;;;;;;;;;;5050915;28;20478;-54
2023/08/11 04:04:49;;;;;;;188.98;56.10;;;;;;;;;;5053609;28;20198;-54
2023/08/11 04:07:15;;;;;;;188.90;55.17;;;;;;;;;;5053426;28;20232;-54
2023/08/11 04:09:43;;;;;;;189.43;54.97;;;;;;;;;;5054782;28;20914;-55
2023/08/11 04:12:11;;;;;;;188.35;54.40;;;;;;;;;;5054771;28;20435;-54
2023/08/11 04:14:37;;;;;;;188.40;53.92;;;;;;;;;;5054780;28;20175;-55
2023/08/11 04:17:04;;;;;;;187.87;54.30;;;;;;;;;;5054725;28;20186;-54
2023/08/11 04:19:32;;;;;;;188.32;54.35;;;;;;;;;;5053171;28;20792;-55
2023/08/11 04:21:57;;;;;;;189.57;55.13;;;;;;;;;;5054470;28;20198;-54
2023/08/11 04:24:23;;;;;;;187.60;54.37;;;;;;;;;;5054536;28;20565;-55
2023/08/11 04:26:51;;;;;;;189.87;55.07;;;;;;;;;;5049823;28;20410;-55
2023/08/11 04:29:17;;;;;;;189.55;55.22;;;;;;;;;;5054377;28;20404;-53
2023/08/11 04:31:43;;;;;;;188.57;54.95;;;;;;;;;;5054412;28;20195;-53
2023/08/11 04:34:10;;;;;;;189.17;54.93;;;;;;;;;;5053053;28;20694;-54
2023/08/11 04:36:37;;;;;;;188.52;54.65;;;;;;;;;;5054456;28;20840;-53
2023/08/11 04:39:05;;;;;;;189.40;55.17;;;;;;;;;;5054344;28;20707;-55
2023/08/11 04:41:31;;;;;;;190.38;55.75;;;;;;;;;;5054623;28;20192;-53
2023/08/11 04:43:57;;;;;;;193.97;59.23;;;;;;;;;;5048557;28;20701;-52
2023/08/11 04:46:24;;;;;;;189.80;55.10;;;;;;;;;;5054366;28;20436;-52
2023/08/11 04:48:50;;;;;;;190.50;56.35;;;;;;;;;;5054226;28;20253;-52
2023/08/11 04:51:16;;;;;;;187.07;54.37;;;;;;;;;;5050836;28;20247;-52
2023/08/11 04:53:43;;;;;;;190.43;56.40;;;;;;;;;;5053913;28;20416;-52
2023/08/11 04:56:11;;;;;;;189.32;55.03;;;;;;;;;;5054057;28;20422;-51
2023/08/11 04:58:38;;;;;;;188.35;54.42;;;;;;;;;;5054001;28;20188;-53
2023/08/11 05:01:04;;;;;;;190.25;55.25;;;;;;;;;;5053962;28;20183;-53
2023/08/11 05:03:30;;;;;;;190.32;56.40;;;;;;;;;;5052595;28;20267;-53
2023/08/11 05:05:56;;;;;;;189.87;55.17;;;;;;;;;;5050814;28;20179;-54
2023/08/11 05:08:22;;;;;;;190.17;55.97;;;;;;;;;;5054132;28;20530;-53
2023/08/11 05:10:48;;;;;;;188.80;54.07;;;;;;;;;;5053562;28;20492;-53
2023/08/11 05:13:14;;;;;;;189.00;54.77;;;;;;;;;;5053755;28;20420;-52
2023/08/11 05:15:40;;;;;;;187.93;54.37;;;;;;;;;;5051197;28;20505;-52
2023/08/11 05:18:06;;;;;;;189.30;54.90;;;;;;;;;;5053683;28;20445;-52
2023/08/11 05:20:32;;;;;;;188.70;54.45;;;;;;;;;;5053308;28;20301;-52
2023/08/11 05:22:58;;;;;;;188.87;55.20;;;;;;;;;;5053519;28;20722;-52
2023/08/11 05:25:24;;;;;;;189.47;55.30;;;;;;;;;;5053435;28;20462;-52
2023/08/11 05:27:51;;;;;;;190.23;55.10;;;;;;;;;;5053509;28;20414;-51
2023/08/11 05:30:17;;;;;;;189.77;54.95;;;;;;;;;;5051912;28;20543;-53
2023/08/11 05:32:43;;;;;;;190.02;55.60;;;;;;;;;;5053458;28;20185;-53
2023/08/11 05:35:09;;;;;;;189.20;56.90;;;;;;;;;;5053723;28;20184;-52
2023/08/11 05:37:37;;;;;;;191.35;57.05;;;;;;;;;;5052630;28;20419;-53
2023/08/11 05:40:05;;;;;;;193.23;58.95;;;;;;;;;;5052580;28;20573;-53
2023/08/11 05:42:31;;;;;;;190.73;57.35;;;;;;;;;;5045030;28;20204;-54
2023/08/11 05:44:57;;;;;;;188.17;54.70;;;;;;;;;;5051229;28;20295;-54
2023/08/11 05:47:23;;;;;;;190.27;54.47;;;;;;;;;;5052472;28;20835;-54
2023/08/11 05:49:51;;;;;;;196.00;60.17;;;;;;;;;;5052148;28;20516;-54
2023/08/11 05:52:17;;;;;;;188.38;54.10;;;;;;;;;;5052431;28;20937;-57
2023/08/11 05:54:43;;;;;;;190.53;56.40;;;;;;;;;;5052514;28;20187;-57
2023/08/11 05:57:09;;;;;;;190.83;56.43;;;;;;;;;;5048259;28;20830;-56
2023/08/11 05:59:35;;;;;;;190.30;55.97;;;;;;;;;;5043935;28;20424;-54
2023/08/11 06:02:02;;;;;;;190.60;55.77;;;;;;;;;;5044997;28;20542;-53
2023/08/11 06:04:28;;;;;;;190.35;56.15;;;;;;;;;;5050653;28;20878;-56
2023/08/11 06:06:54;;;;;;;191.47;56.33;;;;;;;;;;5052013;28;20167;-56
2023/08/11 06:09:20;;;;;;;187.75;53.35;;;;;;;;;;5052185;28;20847;-51
2023/08/11 06:11:46;;;;;;;190.38;56.30;;;;;;;;;;5046593;28;20226;-50
2023/08/11 06:14:12;;;;;;;189.87;55.27;;;;;;;;;;5051357;28;20205;-50
2023/08/11 06:16:38;;;;;;;191.38;55.95;;;;;;;;;;5051818;28;20897;-52
2023/08/11 06:19:05;;;;;;;189.07;55.57;;;;;;;;;;5051673;28;20242;-51
2023/08/11 06:21:31;;;;;;;190.23;55.95;;;;;;;;;;5052060;28;20439;-52
2023/08/11 06:23:57;;;;;;;191.63;56.53;;;;;;;;;;5045637;28;20248;-50
2023/08/11 06:26:24;;;;;;;190.68;55.47;;;;;;;;;;5051941;28;20174;-52
2023/08/11 06:28:49;;;;;;;191.82;57.13;;;;;;;;;;5046903;28;20202;-51
2023/08/11 06:31:19;;;;;;;192.47;56.63;;;;;;;;;;5046864;28;20199;-54
2023/08/11 06:33:45;;;;;;;192.07;56.33;;;;;;;;;;5052218;28;20489;-50
2023/08/11 06:36:13;;;;;;;192.17;57.27;;;;;;;;;;5052137;28;20310;-50
2023/08/11 06:38:38;;;;;;;190.75;56.03;;;;;;;;;;5049321;28;20467;-51
2023/08/11 06:41:05;;;;;;;190.70;56.00;;;;;;;;;;5051968;28;20196;-56
2023/08/11 06:43:31;;;;;;;193.93;59.85;;;;;;;;;;5051540;28;20420;-56
2023/08/11 06:45:58;;;;;;;191.17;56.10;;;;;;;;;;5051964;28;20541;-56
2023/08/11 06:48:24;;;;;;;195.48;61.25;;;;;;;;;;5051971;28;20412;-56
2023/08/11 06:50:50;;;;;;;193.80;57.17;;;;;;;;;;5051637;28;20263;-56
2023/08/11 06:53:16;;;;;;;190.80;56.80;;;;;;;;;;5051898;28;20431;-55
2023/08/11 06:55:42;;;;;;;192.30;57.73;;;;;;;;;;5051839;28;20498;-56
2023/08/11 06:58:10;;;;;;;193.03;58.67;;;;;;;;;;5052304;28;20494;-54
2023/08/11 07:00:36;;;;;;;192.67;57.57;;;;;;;;;;5051386;28;20463;-56
2023/08/11 07:03:04;;;;;;;192.57;57.67;;;;;;;;;;5051732;28;20416;-55
2023/08/11 07:05:30;;;;;;;194.43;59.27;;;;;;;;;;5046403;28;20464;-57
2023/08/11 07:07:56;;;;;;;192.97;57.17;;;;;;;;;;5055818;28;20466;-56
2023/08/11 07:10:22;;;;;;;191.43;56.77;;;;;;;;;;5071453;28;20396;-56
2023/08/11 07:12:48;;;;;;;193.90;60.57;;;;;;;;;;5051871;28;20409;-56
2023/08/11 07:15:14;;;;;;;195.00;59.80;;;;;;;;;;5041287;28;20497;-54
2023/08/11 07:17:40;;;;;;;193.40;58.90;;;;;;;;;;5049391;28;20499;-54
2023/08/11 07:20:06;;;;;;;192.73;58.83;;;;;;;;;;5048734;28;20784;-50
2023/08/11 07:22:32;;;;;;;191.00;56.65;;;;;;;;;;5047230;28;20441;-53
2023/08/11 07:24:58;;;;;;;193.33;58.97;;;;;;;;;;5050600;28;20775;-52
2023/08/11 07:27:24;;;;;;;194.17;58.67;;;;;;;;;;5051192;28;20403;-54
2023/08/11 07:29:50;;;;;;;198.90;63.27;;;;;;;;;;5051186;28;20488;-54
2023/08/11 07:32:16;;;;;;;195.67;59.47;;;;;;;;;;5050575;28;20424;-53
2023/08/11 07:34:42;;;;;;;196.57;61.73;;;;;;;;;;5048727;28;20420;-54
2023/08/11 07:37:08;;;;;;;194.53;60.77;;;;;;;;;;5051488;28;20410;-56
2023/08/11 07:39:34;;;;;;;196.90;61.43;;;;;;;;;;5053488;28;20421;-55
2023/08/11 07:42:02;;;;;;;196.60;59.73;;;;;;;;;;5055085;28;20513;-54
2023/08/11 07:44:30;;;;;;;200.27;65.10;;;;;;;;;;5054252;28;20456;-56
2023/08/11 07:46:56;;;;;;;195.97;59.67;;;;;;;;;;5055354;28;20441;-53
2023/08/11 07:49:23;;;;;;;196.67;60.70;;;;;;;;;;5055237;28;20471;-50
2023/08/11 07:51:50;;;;;;;197.25;61.30;;;;;;;;;;5055118;28;20567;-53
2023/08/11 07:54:16;;;;;;;194.80;61.17;;;;;;;;;;5053961;28;20290;-52
2023/08/11 07:56:44;;;;;;;198.57;64.13;;;;;;;;;;5053314;28;20502;-53
2023/08/11 07:59:11;;;;;;;200.67;65.63;;;;;;;;;;5053106;28;20424;-52
2023/08/11 08:01:37;;;;;;;202.90;71.13;;;;;;;;;;5053544;28;21002;-53
2023/08/11 08:04:04;;;;;;;199.03;66.17;;;;;;;;;;5053498;28;20484;-52
2023/08/11 08:06:30;;;;;;;200.27;67.73;;;;;;;;;;5055083;28;20416;-54
2023/08/11 08:08:56;;;;;;;202.67;71.73;;;;;;;;;;5073345;28;20412;-53
2023/08/11 08:11:23;;;;;;;200.47;68.30;;;;;;;;;;5059296;28;20429;-53
2023/08/11 08:13:51;;;;;;;199.07;67.27;;;;;;;;;;5065640;28;20438;-53
2023/08/11 08:16:16;;;;;;;199.07;67.00;;;;;;;;;;5067572;28;20447;-53
2023/08/11 08:18:42;;;;;;;203.77;75.10;;;;;;;;;;5057649;28;20440;-52
2023/08/11 08:21:08;;;;;;;200.13;68.27;;;;;;;;;;5074723;28;20424;-53
2023/08/11 08:23:36;;;;;;;206.47;78.03;;;;;;;;;;5051141;28;20447;-53
2023/08/11 08:26:02;;;;;;;199.07;68.57;;;;;;;;;;5047713;28;20503;-53
2023/08/11 08:28:31;;;;;;;204.07;77.63;;;;;;;;;;5053468;28;20412;-53
2023/08/11 08:30:59;;;;;;;205.10;75.50;;;;;;;;;;5054396;28;20432;-52
2023/08/11 08:33:26;;;;;;;201.60;73.30;;;;;;;;;;5058861;28;20421;-54
2023/08/11 08:35:53;;;;;;;203.73;76.50;;;;;;;;;;5034514;28;20987;-52
2023/08/11 08:38:19;;;;;;;203.47;76.30;;;;;;;;;;5034536;28;20445;-52
2023/08/11 08:40:45;;;;;;;205.70;80.50;;;;;;;;;;5043775;28;20511;-54
2023/08/11 08:43:11;;;;;;;202.30;72.73;;;;;;;;;;5054447;28;20929;-56
2023/08/11 08:45:38;;;;;;;203.57;75.47;;;;;;;;;;5054241;28;20465;-56
2023/08/11 08:48:08;;;;;;;203.80;76.47;;;;;;;;;;5054314;28;20412;-55
2023/08/11 08:50:35;;;;;;;203.97;77.77;;;;;;;;;;5053552;28;20453;-56
2023/08/11 08:53:03;;;;;;;204.10;78.93;;;;;;;;;;5054219;28;20409;-55
2023/08/11 08:55:29;;;;;;;203.20;78.43;;;;;;;;;;5053933;28;20605;-56
2023/08/11 08:57:55;;;;;;;202.33;76.20;;;;;;;;;;5053087;28;20812;-55
2023/08/11 09:00:24;;;;;;;204.40;79.27;;;;;;;;;;5053771;28;20453;-54
2023/08/11 09:02:50;;;;;;;205.10;79.57;;;;;;;;;;5054054;28;20966;-54
2023/08/11 09:05:17;;;;;;;205.13;80.10;;;;;;;;;;5053552;28;20490;-54
2023/08/11 09:07:43;;;;;;;205.57;80.97;;;;;;;;;;5053969;28;20409;-54
2023/08/11 09:10:09;;;;;;;202.37;75.60;;;;;;;;;;5053474;28;20824;-53
2023/08/11 09:12:35;;;;;;;203.17;79.60;;;;;;;;;;5053680;28;21002;-55
2023/08/11 09:15:06;;;;;;;205.47;82.60;;;;;;;;;;5053841;28;20409;-54
2023/08/11 09:17:32;;;;;;;207.67;91.47;;;;;;;;;;5053222;28;20405;-55
2023/08/11 09:19:59;;;;;;;202.40;77.73;;;;;;;;;;5048371;28;20473;-54
2023/08/11 09:22:26;;;;;;;204.43;81.77;;;;;;;;;;5053447;28;20440;-54
2023/08/11 09:24:55;;;;;;;202.03;77.73;;;;;;;;;;5053309;28;20464;-53
2023/08/11 09:27:21;;;;;;;201.97;78.77;;;;;;;;;;5053409;28;20413;-54
2023/08/11 09:29:49;;;;;;;205.57;85.83;;;;;;;;;;5049783;28;20425;-54
2023/08/11 09:32:15;;;;;;;200.83;77.47;;;;;;;;;;5053286;28;20429;-54
2023/08/11 09:34:43;;;;;;;210.70;90.50;;;;;;;;;;5053233;28;20844;-53
2023/08/11 09:37:10;;;;;;;208.10;86.97;;;;;;;;;;5053572;28;20412;-54
2023/08/11 09:39:37;;;;;;;205.43;89.83;;;;;;;;;;5053125;28;20429;-54
2023/08/11 09:42:04;;;;;;;200.17;76.10;;;;;;;;;;5053119;28;20798;-54
2023/08/11 09:44:31;;;;;;;199.33;76.40;;;;;;;;;;5053438;28;20457;-53
2023/08/11 09:46:57;;;;;;;202.47;80.90;;;;;;;;;;5053060;28;20467;-53
2023/08/11 09:49:23;;;;;;;204.50;85.37;;;;;;;;;;5053106;28;20440;-54
2023/08/11 09:51:50;;;;;;;204.53;85.13;;;;;;;;;;5052763;28;20448;-53
2023/08/11 09:54:17;;;;;;;208.57;94.53;;;;;;;;;;5052940;28;20405;-54
2023/08/11 09:56:44;;;;;;;203.97;81.90;;;;;;;;;;5052910;28;20905;-54
2023/08/11 09:59:15;;;;;;;201.13;79.83;;;;;;;;;;5053007;28;20920;-54
2023/08/11 10:01:45;;;;;;;205.27;86.00;;;;;;;;;;5049001;28;20472;-54
2023/08/11 10:04:13;;;;;;;204.00;85.17;;;;;;;;;;5052725;28;20510;-55
2023/08/11 10:06:42;;;;;;;206.07;91.17;;;;;;;;;;5052660;28;20417;-54
2023/08/11 10:09:12;;;;;;;200.87;80.40;;;;;;;;;;5051071;28;20831;-54
2023/08/11 10:11:38;;;;;;;204.67;90.57;;;;;;;;;;5044198;28;20947;-54
2023/08/11 10:14:05;;;;;;;205.33;86.23;;;;;;;;;;5052629;28;20413;-54
2023/08/11 10:16:31;;;;;;;207.93;91.40;;;;;;;;;;5051703;28;20437;-54
2023/08/11 10:18:58;;;;;;;205.33;87.70;;;;;;;;;;5046989;28;20448;-54
2023/08/11 10:21:25;;;;;;;205.80;90.60;;;;;;;;;;5052216;28;20445;-54
2023/08/11 10:23:56;;;;;;;202.23;82.87;;;;;;;;;;5050587;28;20422;-54
2023/08/11 10:26:23;;;;;;;202.20;81.13;;;;;;;;;;5052318;28;20410;-52
2023/08/11 10:28:50;;;;;;;203.37;86.47;;;;;;;;;;5052325;28;20764;-51
2023/08/11 10:31:16;;;;;;;201.03;82.90;;;;;;;;;;5051997;28;20433;-51
2023/08/11 10:33:49;;;;;;;202.33;85.27;;;;;;;;;;5052281;28;20402;-52
2023/08/11 10:36:17;;;;;;;202.77;85.43;;;;;;;;;;5050615;28;20404;-51
2023/08/11 10:38:46;;;;;;;203.90;87.67;;;;;;;;;;5052285;28;20736;-51
2023/08/11 10:41:17;;;;;;;205.07;89.00;;;;;;;;;;5052924;28;20421;-50
2023/08/11 10:43:48;;;;;;;204.10;85.50;;;;;;;;;;5049201;28;20397;-51
2023/08/11 10:46:19;;;;;;;206.27;93.17;;;;;;;;;;5051981;28;20440;-51
2023/08/11 10:48:45;;;;;;;203.53;84.97;;;;;;;;;;5052086;28;20406;-50
2023/08/11 10:51:27;;;;;;;204.50;89.43;;;;;;;;;;5050153;28;20532;-50
2023/08/11 10:53:54;;;;;;;201.17;84.70;;;;;;;;;;5045662;28;20416;-51
2023/08/11 10:56:28;;;;;;;202.50;86.80;;;;;;;;;;5051859;28;20441;-50
2023/08/11 10:59:04;;;;;;;203.83;85.90;;;;;;;;;;5051910;28;20492;-49
2023/08/11 11:01:30;;;;;;;202.50;86.63;;;;;;;;;;5051402;28;20475;-50
2023/08/11 11:03:56;;;;;;;202.90;89.70;;;;;;;;;;5051965;28;20818;-50
2023/08/11 11:06:22;;;;;;;203.87;88.73;;;;;;;;;;5050174;28;20426;-50
2023/08/11 11:08:49;;;;;;;203.97;92.93;;;;;;;;;;5051729;28;20960;-51
2023/08/11 11:11:15;;;;;;;205.37;91.27;;;;;;;;;;5051381;28;20464;-49
2023/08/11 11:13:43;;;;;;;203.50;87.97;;;;;;;;;;5050755;28;20413;-50
2023/08/11 11:16:10;;;;;;;204.93;93.50;;;;;;;;;;5051537;28;20478;-52
2023/08/11 11:18:39;;;;;;;204.37;89.80;;;;;;;;;;5051518;28;20405;-50
2023/08/11 11:21:05;;;;;;;199.63;86.70;;;;;;;;;;5051372;28;20456;-50
2023/08/11 11:23:33;;;;;;;202.83;91.83;;;;;;;;;;5051528;28;20932;-51
2023/08/11 11:26:01;;;;;;;210.20;103.67;;;;;;;;;;5051419;28;20487;-50
2023/08/11 11:28:27;;;;;;;203.83;91.63;;;;;;;;;;5051338;28;20410;-51
2023/08/11 11:30:54;;;;;;;201.47;90.00;;;;;;;;;;5051055;28;20850;-50
2023/08/11 11:33:21;;;;;;;206.17;94.33;;;;;;;;;;5050289;28;20986;-49
2023/08/11 11:35:47;;;;;;;203.57;89.40;;;;;;;;;;5051478;28;20420;-49
2023/08/11 11:38:13;;;;;;;200.93;87.80;;;;;;;;;;5051432;28;20413;-49
2023/08/11 11:40:40;;;;;;;204.40;93.33;;;;;;;;;;5041671;28;20826;-50
2023/08/11 11:43:06;;;;;;;201.53;88.23;;;;;;;;;;5046980;28;20498;-51
2023/08/11 11:45:32;;;;;;;208.40;102.17;;;;;;;;;;5043370;28;20515;-50
2023/08/11 11:47:59;;;;;;;200.33;85.53;;;;;;;;;;5050079;28;20409;-49
2023/08/11 11:50:27;;;;;;;202.97;90.97;;;;;;;;;;5050819;28;20420;-51
2023/08/11 11:52:53;;;;;;;204.30;93.07;;;;;;;;;;5051289;28;20995;-50
2023/08/11 11:55:19;;;;;;;202.87;89.87;;;;;;;;;;5051113;28;20409;-49
2023/08/11 11:57:46;;;;;;;203.50;94.57;;;;;;;;;;5051018;28;20424;-50
2023/08/11 12:00:18;;;;;;;199.80;86.53;;;;;;;;;;5050048;28;20964;-50
2023/08/11 12:02:45;;;;;;;198.17;82.90;;;;;;;;;;5043941;28;20406;-51
2023/08/11 12:05:12;;;;;;;204.97;93.40;;;;;;;;;;5048327;28;20463;-50
2023/08/11 12:07:38;;;;;;;200.67;86.07;;;;;;;;;;5051188;28;20412;-49
2023/08/11 12:10:05;;;;;;;198.90;83.33;;;;;;;;;;5051298;28;20455;-49
2023/08/11 12:12:33;;;;;;;199.73;86.70;;;;;;;;;;5051052;28;20428;-51
2023/08/11 12:15:06;;;;;;;198.53;81.67;;;;;;;;;;5049788;28;20417;-50
2023/08/11 12:17:32;;;;;;;202.50;91.93;;;;;;;;;;5048089;28;20414;-51
2023/08/11 12:19:59;;;;;;;204.27;96.17;;;;;;;;;;5050858;28;20413;-51
2023/08/11 12:22:25;;;;;;;200.93;87.70;;;;;;;;;;5050963;28;20470;-50
2023/08/11 12:24:51;;;;;;;210.40;106.37;;;;;;;;;;5052083;28;20468;-51
2023/08/11 12:27:17;;;;;;;204.97;98.27;;;;;;;;;;5054646;28;20433;-50
2023/08/11 12:29:43;;;;;;;214.00;112.53;;;;;;;;;;5053244;28;20476;-50
2023/08/11 12:32:09;;;;;;;204.87;98.70;;;;;;;;;;5054520;28;20508;-51
2023/08/11 12:34:36;;;;;;;200.17;87.20;;;;;;;;;;5054553;28;20453;-50
2023/08/11 12:37:02;;;;;;;201.17;93.20;;;;;;;;;;5054485;28;20452;-50
2023/08/11 12:39:29;;;;;;;204.23;97.13;;;;;;;;;;5054285;28;20448;-50
2023/08/11 12:41:56;;;;;;;206.23;105.67;;;;;;;;;;5054278;28;20429;-50
2023/08/11 12:44:22;;;;;;;201.17;89.17;;;;;;;;;;5053154;28;20595;-50
2023/08/11 12:46:49;;;;;;;201.77;92.77;;;;;;;;;;5054410;28;20455;-50
2023/08/11 12:49:15;;;;;;;205.93;102.10;;;;;;;;;;5054222;28;20901;-51
2023/08/11 12:51:41;;;;;;;205.83;102.20;;;;;;;;;;5047892;28;20451;-52
2023/08/11 12:54:07;;;;;;;203.43;96.13;;;;;;;;;;5054133;28;20506;-50
2023/08/11 12:56:34;;;;;;;203.50;98.03;;;;;;;;;;5053131;28;20417;-50
2023/08/11 12:59:00;;;;;;;206.77;106.40;;;;;;;;;;5054106;28;20928;-49
2023/08/11 13:01:26;;;;;;;203.67;94.10;;;;;;;;;;5053700;28;20433;-51
2023/08/11 13:03:52;;;;;;;205.50;101.97;;;;;;;;;;5053854;28;20417;-50
2023/08/11 13:06:18;;;;;;;201.83;94.00;;;;;;;;;;5053732;28;20445;-51
2023/08/11 13:08:45;;;;;;;198.03;87.50;;;;;;;;;;5054206;28;20812;-51
2023/08/11 13:11:12;;;;;;;204.20;99.67;;;;;;;;;;5052596;28;20467;-50
2023/08/11 13:13:38;;;;;;;199.30;87.30;;;;;;;;;;5053684;28;20909;-50
2023/08/11 13:16:04;;;;;;;202.93;96.93;;;;;;;;;;5053704;28;20421;-49
2023/08/11 13:18:30;;;;;;;201.37;91.87;;;;;;;;;;5053689;28;20420;-50
2023/08/11 13:20:55;;;;;;;200.27;91.63;;;;;;;;;;5047988;28;20433;-51
2023/08/11 13:23:23;;;;;;;204.10;101.70;;;;;;;;;;5053604;28;20514;-51
2023/08/11 13:25:48;;;;;;;197.53;87.80;;;;;;;;;;5052479;28;20996;-50
2023/08/11 13:28:14;;;;;;;201.60;99.43;;;;;;;;;;5053535;28;20475;-51
2023/08/11 13:30:42;;;;;;;198.80;87.33;;;;;;;;;;5053341;28;20932;-51
2023/08/11 13:33:08;;;;;;;206.47;105.57;;;;;;;;;;5052270;28;20815;-49
2023/08/11 13:35:34;;;;;;;202.13;93.27;;;;;;;;;;5053069;28;20967;-49
2023/08/11 13:38:01;;;;;;;198.83;92.20;;;;;;;;;;5052695;28;20776;-50
2023/08/11 13:40:27;;;;;;;204.80;96.43;;;;;;;;;;5053115;28;20417;-49
2023/08/11 13:42:52;;;;;;;207.37;101.87;;;;;;;;;;5049827;28;20420;-51
2023/08/11 13:45:18;;;;;;;203.03;94.43;;;;;;;;;;5039224;28;21013;-50
2023/08/11 13:47:44;;;;;;;198.43;89.57;;;;;;;;;;5043120;28;20420;-50
2023/08/11 13:50:12;;;;;;;207.53;107.63;;;;;;;;;;5052484;28;20444;-51
2023/08/11 13:52:38;;;;;;;208.27;108.07;;;;;;;;;;5053098;28;20420;-50
2023/08/11 13:55:04;;;;;;;201.80;93.73;;;;;;;;;;5053298;28;20409;-49
2023/08/11 13:57:30;;;;;;;211.00;109.23;;;;;;;;;;5053117;28;20397;-50
2023/08/11 13:59:57;;;;;;;202.67;94.07;;;;;;;;;;5034547;28;20421;-49